Time;durP1;ratioP1;P1;durP2;ratioP2;P2;SDS_P1;SDS_P2;PMS_P1;PMS_P2;Temp;Humidity;BMP_temperature;BMP_pressure;BME280_temperature;BME280_humidity;BME280_pressure;Samples;Min_cycle;Max_cycle;Signal;HPM_P1;HPM_P2
2023/12/12 00:04:00;;;;;;;6.37;3.80;;;10.00;99.90;;;;;;10372624;28;20227;-75
2023/12/12 00:09:02;;;;;;;3.83;3.30;;;10.00;99.90;;;;;;10366183;28;20191;-79
2023/12/12 00:14:06;;;;;;;6.03;3.30;;;9.90;99.90;;;;;;10382247;28;20215;-80
2023/12/12 00:19:09;;;;;;;4.03;3.10;;;9.90;99.90;;;;;;10382724;28;20194;-79
2023/12/12 00:24:11;;;;;;;5.80;3.60;;;9.90;99.90;;;;;;10386457;28;20257;-82
2023/12/12 00:29:15;;;;;;;4.83;3.10;;;9.80;99.90;;;;;;10379099;28;20202;-79
2023/12/12 00:34:17;;;;;;;8.30;3.73;;;9.80;99.90;;;;;;10378640;28;20629;-80
2023/12/12 00:39:20;;;;;;;4.70;3.70;;;9.80;99.90;;;;;;10376468;28;20229;-79
2023/12/12 00:44:23;;;;;;;4.40;3.33;;;9.90;99.90;;;;;;10377616;28;20226;-79
2023/12/12 00:49:26;;;;;;;7.43;4.30;;;10.00;99.90;;;;;;10382789;28;20602;-78
2023/12/12 00:54:28;;;;;;;5.70;3.23;;;10.00;99.90;;;;;;10384545;28;20616;-80
2023/12/12 00:59:32;;;;;;;6.90;3.70;;;10.10;99.90;;;;;;10361332;28;20257;-80
2023/12/12 01:04:35;;;;;;;5.27;3.70;;;10.20;99.90;;;;;;10381391;28;20288;-79
2023/12/12 01:09:37;;;;;;;5.13;3.60;;;10.20;99.90;;;;;;10384401;28;20199;-79
2023/12/12 01:14:41;;;;;;;4.17;3.10;;;10.20;99.90;;;;;;10360050;28;20211;-79
2023/12/12 01:19:43;;;;;;;3.70;2.93;;;10.20;99.90;;;;;;10361441;28;20206;-79
2023/12/12 01:24:50;;;;;;;3.97;3.10;;;10.20;99.90;;;;;;10374545;28;20241;-79
2023/12/12 01:29:55;;;;;;;3.87;3.07;;;10.20;99.90;;;;;;10377954;28;20206;-79
2023/12/12 01:34:57;;;;;;;3.80;2.87;;;10.20;99.90;;;;;;10376759;28;20253;-80
2023/12/12 01:40:00;;;;;;;5.57;3.27;;;10.20;99.90;;;;;;10379017;22;20235;-75
2023/12/12 01:45:04;;;;;;;5.00;3.30;;;10.20;99.90;;;;;;10353102;28;20724;-75
2023/12/12 01:50:08;;;;;;;3.53;3.20;;;10.30;99.90;;;;;;10349160;28;20222;-76
2023/12/12 01:55:10;;;;;;;7.20;3.63;;;10.30;99.90;;;;;;10365036;28;20533;-78
2023/12/12 02:00:15;;;;;;;4.97;3.53;;;10.30;99.90;;;;;;10362795;28;20221;-77
2023/12/12 02:05:18;;;;;;;3.53;3.23;;;10.30;99.90;;;;;;10363915;28;20769;-77
2023/12/12 02:10:21;;;;;;;6.50;3.30;;;10.30;99.90;;;;;;10368186;28;20222;-77
2023/12/12 02:15:25;;;;;;;3.70;3.40;;;10.30;99.90;;;;;;10366465;28;20198;-75
2023/12/12 02:20:27;;;;;;;7.97;3.13;;;10.30;99.90;;;;;;10367051;28;20573;-77
2023/12/12 02:25:31;;;;;;;2.80;2.60;;;10.30;99.90;;;;;;10366513;28;20272;-77
2023/12/12 02:30:35;;;;;;;4.63;2.83;;;10.20;99.90;;;;;;10366749;28;20750;-77
2023/12/12 02:35:37;;;;;;;4.00;2.87;;;10.10;99.90;;;;;;10363570;28;20190;-75
2023/12/12 02:40:41;;;;;;;4.00;2.40;;;10.00;99.90;;;;;;10366669;28;20269;-77
2023/12/12 02:45:43;;;;;;;3.97;2.47;;;9.90;99.90;;;;;;10365868;28;20238;-77
2023/12/12 02:50:46;;;;;;;4.77;3.03;;;9.80;99.90;;;;;;10365420;28;20222;-77
2023/12/12 02:55:49;;;;;;;4.60;2.90;;;9.70;99.90;;;;;;10366068;28;20202;-76
2023/12/12 03:00:52;;;;;;;2.60;2.33;;;9.60;99.90;;;;;;10366430;28;20227;-77
2023/12/12 03:05:54;;;;;;;2.80;2.40;;;9.60;99.90;;;;;;10373144;28;20226;-77
2023/12/12 03:10:58;;;;;;;2.90;2.63;;;9.60;99.90;;;;;;10378137;28;20226;-77
2023/12/12 03:16:00;;;;;;;3.60;2.73;;;9.50;99.90;;;;;;10374836;28;20183;-77
2023/12/12 03:21:02;;;;;;;3.07;2.80;;;9.40;99.90;;;;;;10374046;28;20226;-77
2023/12/12 03:26:08;;;;;;;3.57;3.20;;;9.40;99.90;;;;;;10372920;28;20214;-77
2023/12/12 03:31:10;;;;;;;2.93;2.60;;;9.50;99.90;;;;;;10373469;28;20218;-76
2023/12/12 03:36:13;;;;;;;2.77;2.57;;;9.50;99.90;;;;;;10371742;28;20676;-76
2023/12/12 03:41:17;;;;;;;3.13;2.23;;;9.50;99.90;;;;;;10373226;28;20755;-77
2023/12/12 03:46:19;;;;;;;4.93;2.73;;;9.50;99.90;;;;;;10372320;28;20222;-77
2023/12/12 03:51:23;;;;;;;4.17;2.63;;;9.70;99.90;;;;;;10372788;28;20219;-76
2023/12/12 03:56:26;;;;;;;2.40;2.20;;;9.70;99.90;;;;;;10371987;28;20194;-76
2023/12/12 04:01:29;;;;;;;2.73;2.40;;;9.80;99.90;;;;;;10372157;28;20281;-76
2023/12/12 04:06:31;;;;;;;3.70;2.87;;;9.80;99.90;;;;;;10371901;28;20670;-77
2023/12/12 04:11:35;;;;;;;2.83;2.63;;;9.80;99.90;;;;;;10371738;28;20226;-77
2023/12/12 04:16:37;;;;;;;3.13;2.90;;;9.90;99.90;;;;;;10370525;28;20187;-76
2023/12/12 04:21:42;;;;;;;4.03;3.60;;;9.80;99.90;;;;;;10371628;28;20222;-77
2023/12/12 04:26:46;;;;;;;3.10;2.80;;;9.90;99.90;;;;;;10369728;28;20757;-77
2023/12/12 04:31:50;;;;;;;2.93;2.43;;;9.80;99.90;;;;;;10371003;28;20230;-77
2023/12/12 04:36:53;;;;;;;3.10;2.80;;;9.80;99.90;;;;;;10369785;28;20245;-77
2023/12/12 04:41:56;;;;;;;2.97;2.57;;;9.70;99.90;;;;;;10369937;28;20221;-76
2023/12/12 04:46:58;;;;;;;2.43;2.30;;;9.70;99.90;;;;;;10369883;28;20252;-76
2023/12/12 04:52:01;;;;;;;4.13;2.50;;;9.60;99.90;;;;;;10368161;28;20277;-76
2023/12/12 04:57:05;;;;;;;2.90;2.63;;;9.60;99.90;;;;;;10369575;28;20253;-76
2023/12/12 05:02:07;;;;;;;2.87;2.40;;;9.50;99.90;;;;;;10367405;28;20222;-76
2023/12/12 05:07:10;;;;;;;3.17;2.40;;;9.50;99.90;;;;;;10362699;28;20195;-76
2023/12/12 05:12:13;;;;;;;4.33;3.03;;;9.40;99.90;;;;;;10368314;28;20236;-76
2023/12/12 05:17:16;;;;;;;4.30;2.37;;;9.40;99.90;;;;;;10368855;28;20203;-76
2023/12/12 05:22:18;;;;;;;3.50;2.97;;;9.40;99.90;;;;;;10368989;28;20195;-76
2023/12/12 05:27:22;;;;;;;6.00;4.13;;;9.50;99.90;;;;;;10367701;28;20722;-76
2023/12/12 05:32:24;;;;;;;3.83;3.40;;;9.60;99.90;;;;;;10366974;28;20260;-77
2023/12/12 05:37:26;;;;;;;3.57;3.37;;;9.70;99.90;;;;;;10368281;28;20206;-77
2023/12/12 05:42:30;;;;;;;3.30;3.00;;;9.70;99.90;;;;;;10367783;28;20660;-77
2023/12/12 05:47:32;;;;;;;3.60;3.27;;;9.70;99.90;;;;;;10324204;28;20696;-76
2023/12/12 05:52:35;;;;;;;4.10;3.73;;;9.80;99.90;;;;;;10361023;28;20738;-77
2023/12/12 05:57:38;;;;;;;4.03;3.63;;;9.80;99.90;;;;;;10363965;28;20230;-76
2023/12/12 06:02:41;;;;;;;5.63;3.20;;;9.80;99.90;;;;;;10367711;28;20206;-77
2023/12/12 06:07:43;;;;;;;15.27;3.33;;;9.90;99.90;;;;;;10364322;28;20699;-76
2023/12/12 06:12:47;;;;;;;4.43;3.53;;;9.90;99.90;;;;;;10347853;28;20225;-77
2023/12/12 06:17:49;;;;;;;3.00;2.70;;;9.90;99.90;;;;;;10343870;28;20216;-76
2023/12/12 06:22:52;;;;;;;4.73;3.00;;;9.90;99.90;;;;;;10345788;28;20211;-76
2023/12/12 06:27:56;;;;;;;7.53;3.97;;;9.90;99.90;;;;;;10346560;28;20234;-77
2023/12/12 06:32:58;;;;;;;4.00;3.47;;;9.90;99.90;;;;;;10344460;28;20191;-77
2023/12/12 06:38:03;;;;;;;3.60;3.30;;;9.90;99.90;;;;;;10346923;28;20592;-77
2023/12/12 06:43:08;;;;;;;4.37;3.27;;;10.00;99.90;;;;;;10346238;28;20234;-77
2023/12/12 06:48:11;;;;;;;4.13;3.17;;;10.00;99.90;;;;;;10343099;28;20277;-76
2023/12/12 06:53:14;;;;;;;3.33;3.03;;;10.00;99.90;;;;;;10363849;28;20203;-77
2023/12/12 06:58:18;;;;;;;3.00;2.40;;;10.00;99.90;;;;;;10365552;28;20222;-76
2023/12/12 07:03:21;;;;;;;4.93;3.37;;;10.10;99.90;;;;;;10365553;28;20222;-77
2023/12/12 07:08:24;;;;;;;5.73;4.13;;;10.10;99.90;;;;;;10364380;28;20699;-77
2023/12/12 07:13:28;;;;;;;5.30;3.77;;;10.10;99.90;;;;;;10365828;28;20194;-76
2023/12/12 07:18:30;;;;;;;5.60;4.60;;;10.10;99.90;;;;;;10364290;28;20226;-76
2023/12/12 07:23:33;;;;;;;4.57;4.03;;;10.10;99.90;;;;;;10366023;28;20223;-76
2023/12/12 07:28:37;;;;;;;3.93;3.67;;;10.10;99.90;;;;;;10365878;28;20598;-77
2023/12/12 07:33:39;;;;;;;5.03;3.77;;;10.20;99.90;;;;;;10365696;28;20191;-77
2023/12/12 07:38:42;;;;;;;5.17;3.30;;;10.20;99.90;;;;;;10396238;22;20241;-81
2023/12/12 07:43:46;;;;;;;5.17;3.60;;;10.30;99.90;;;;;;10413314;28;20280;-81
2023/12/12 07:48:48;;;;;;;5.00;3.50;;;10.30;99.90;;;;;;10413954;28;20691;-81
2023/12/12 07:53:53;;;;;;;5.03;3.10;;;10.30;99.90;;;;;;10418396;28;20198;-81
2023/12/12 07:58:57;;;;;;;4.13;3.43;;;10.40;99.90;;;;;;10419589;28;20240;-81
2023/12/12 08:03:59;;;;;;;2.90;2.67;;;10.40;99.90;;;;;;10420070;28;20221;-81
2023/12/12 08:09:02;;;;;;;3.73;2.20;;;10.40;99.90;;;;;;10421047;28;20601;-81
2023/12/12 08:14:06;;;;;;;3.57;3.27;;;10.40;99.90;;;;;;10421269;28;20225;-81
2023/12/12 08:19:09;;;;;;;3.87;3.10;;;10.50;99.90;;;;;;10419612;28;20828;-81
2023/12/12 08:24:12;;;;;;;3.90;3.60;;;10.50;99.90;;;;;;10404289;28;20707;-81
2023/12/12 08:29:16;;;;;;;3.13;3.03;;;10.50;99.90;;;;;;10420663;28;20222;-81
2023/12/12 08:34:18;;;;;;;3.17;2.97;;;10.50;99.90;;;;;;10420469;28;20193;-81
2023/12/12 08:39:21;;;;;;;3.20;2.90;;;10.60;99.90;;;;;;10420975;28;20224;-81
2023/12/12 08:44:24;;;;;;;3.33;3.13;;;10.70;99.90;;;;;;10420182;28;20295;-81
2023/12/12 08:49:27;;;;;;;2.97;2.70;;;10.70;99.90;;;;;;10420988;28;20241;-81
2023/12/12 08:54:29;;;;;;;4.00;3.30;;;10.70;99.90;;;;;;10423950;28;20198;-81
2023/12/12 08:59:33;;;;;;;4.20;3.80;;;10.70;99.90;;;;;;10433137;28;20226;-81
2023/12/12 09:04:35;;;;;;;5.30;4.47;;;10.80;99.90;;;;;;10423283;28;21067;-80
2023/12/12 09:09:37;;;;;;;3.83;3.43;;;10.80;99.90;;;;;;10418589;28;20279;-81
2023/12/12 09:14:41;;;;;;;4.43;4.03;;;10.90;99.90;;;;;;10417215;28;20214;-81
2023/12/12 09:19:44;;;;;;;3.57;3.37;;;10.90;99.90;;;;;;10418730;28;20644;-81
2023/12/12 09:24:46;;;;;;;4.33;3.60;;;11.00;99.90;;;;;;10417931;28;20714;-81
2023/12/12 09:29:50;;;;;;;4.73;3.87;;;11.00;99.90;;;;;;10417385;28;20221;-81
2023/12/12 09:34:57;;;;;;;3.27;3.07;;;11.00;99.90;;;;;;10413927;28;20194;-81
2023/12/12 09:40:02;;;;;;;5.73;3.30;;;11.00;99.90;;;;;;10413363;28;20609;-81
2023/12/12 09:45:13;;;;;;;4.20;3.73;;;11.10;99.90;;;;;;10413226;28;20252;-80
2023/12/12 09:50:23;;;;;;;3.40;3.10;;;11.10;99.90;;;;;;10417258;28;20221;-81
2023/12/12 09:55:28;;;;;;;4.60;4.10;;;11.10;99.90;;;;;;10416949;28;20247;-81
2023/12/12 10:00:31;;;;;;;3.47;3.17;;;11.10;99.90;;;;;;10416645;28;20214;-77
2023/12/12 10:05:37;;;;;;;3.47;3.23;;;11.10;99.90;;;;;;10413898;28;20230;-81
2023/12/12 10:10:41;;;;;;;2.90;2.70;;;11.00;99.90;;;;;;10415688;28;20230;-80
2023/12/12 10:15:45;;;;;;;2.80;2.60;;;10.90;99.90;;;;;;10413638;28;20194;-81
2023/12/12 10:20:47;;;;;;;3.40;3.20;;;10.80;99.90;;;;;;10416363;28;20655;-80
2023/12/12 10:25:51;;;;;;;3.57;3.30;;;10.70;99.90;;;;;;10409803;28;20230;-81
2023/12/12 10:30:55;;;;;;;4.27;3.73;;;10.50;99.90;;;;;;10410830;28;20214;-81
2023/12/12 10:35:57;;;;;;;4.00;3.70;;;10.40;99.90;;;;;;10411821;28;20194;-80
2023/12/12 10:41:11;;;;;;;3.80;3.50;;;10.40;99.90;;;;;;10414601;28;20238;-79
2023/12/12 10:46:15;;;;;;;3.70;3.40;;;10.40;99.90;;;;;;10410859;28;20217;-80
2023/12/12 10:51:19;;;;;;;3.57;3.37;;;10.40;99.90;;;;;;10414726;28;20225;-79
2023/12/12 10:56:22;;;;;;;5.00;4.60;;;10.40;99.90;;;;;;10411017;28;20205;-79
2023/12/12 11:01:26;;;;;;;7.67;7.33;;;10.40;99.90;;;;;;10421043;28;20221;-81
2023/12/12 11:06:28;;;;;;;7.70;7.30;;;10.50;99.90;;;;;;10421879;28;20575;-82
2023/12/12 11:11:31;;;;;;;6.27;5.97;;;10.50;99.90;;;;;;10411875;28;20645;-81
2023/12/12 11:16:35;;;;;;;7.70;7.40;;;10.40;99.90;;;;;;10410378;28;20729;-82
2023/12/12 11:21:44;;;;;;;7.17;6.77;;;10.40;99.90;;;;;;10411980;28;20276;-81
2023/12/12 11:26:49;;;;;;;7.47;7.10;;;10.40;99.90;;;;;;10415843;28;20222;-82
2023/12/12 11:32:01;;;;;;;8.60;8.20;;;10.50;99.90;;;;;;10418259;28;20770;-81
2023/12/12 11:37:03;;;;;;;8.70;8.30;;;10.50;99.90;;;;;;10413316;28;20202;-81
2023/12/12 11:42:08;;;;;;;9.93;9.03;;;10.50;99.90;;;;;;10419050;28;20584;-80
2023/12/12 11:47:14;;;;;;;7.83;7.53;;;10.60;99.90;;;;;;10419058;28;20283;-82
2023/12/12 11:52:48;;;;;;;7.60;7.30;;;10.60;99.90;;;;;;10420576;28;20232;-81
2023/12/12 11:57:51;;;;;;;9.63;9.23;;;10.60;99.90;;;;;;10430550;28;20606;-82
2023/12/12 12:02:54;;;;;;;6.73;6.43;;;10.70;99.90;;;;;;10413628;28;20209;-82
2023/12/12 12:07:57;;;;;;;8.80;8.40;;;10.80;99.90;;;;;;10417656;28;20292;-82
2023/12/12 12:13:00;;;;;;;8.60;8.30;;;10.90;99.90;;;;;;10417031;28;20220;-82
2023/12/12 12:18:04;;;;;;;9.10;8.70;;;10.90;99.90;;;;;;10416874;28;20616;-82
2023/12/12 12:23:08;;;;;;;9.13;8.70;;;10.90;99.90;;;;;;10417585;28;20198;-82
2023/12/12 12:28:11;;;;;;;9.10;8.80;;;11.00;99.90;;;;;;10416712;28;20501;-82
2023/12/12 12:33:14;;;;;;;7.30;7.00;;;11.00;99.90;;;;;;10417175;28;20209;-82
2023/12/12 12:38:26;;;;;;;6.43;6.03;;;11.10;99.90;;;;;;10417944;28;20218;-82
2023/12/12 12:43:29;;;;;;;25.47;23.37;;;11.10;99.90;;;;;;10419494;28;20570;-82
2023/12/12 12:48:34;;;;;;;9.40;9.00;;;11.10;99.90;;;;;;10419970;28;20217;-82
2023/12/12 12:53:36;;;;;;;7.60;7.20;;;11.10;99.90;;;;;;10420400;28;20210;-82
2023/12/12 12:58:42;;;;;;;9.03;8.43;;;11.10;99.90;;;;;;10417489;28;20218;-82
2023/12/12 13:03:45;;;;;;;9.63;9.23;;;11.10;99.90;;;;;;10410903;28;20209;-80
2023/12/12 13:08:48;;;;;;;6.67;6.37;;;11.10;99.90;;;;;;10414801;28;20221;-80
2023/12/12 13:13:50;;;;;;;9.47;9.00;;;11.10;99.90;;;;;;10416762;28;20678;-81
2023/12/12 13:18:54;;;;;;;10.80;10.10;;;11.10;99.90;;;;;;10414162;28;20214;-80
2023/12/12 13:23:57;;;;;;;10.00;9.23;;;11.10;99.90;;;;;;10412395;28;20244;-81
2023/12/12 13:28:59;;;;;;;9.87;8.97;;;11.10;99.90;;;;;;10414019;28;20224;-81
2023/12/12 13:34:03;;;;;;;10.70;9.83;;;11.10;99.90;;;;;;10414267;28;20198;-79
2023/12/12 13:39:12;;;;;;;8.30;7.90;;;11.00;99.90;;;;;;10429873;23;20672;-83
2023/12/12 13:44:16;;;;;;;7.30;6.63;;;11.00;99.90;;;;;;10387365;28;20213;-83
2023/12/12 13:49:20;;;;;;;6.70;6.30;;;11.00;99.90;;;;;;10378152;28;20233;-82
2023/12/12 13:54:22;;;;;;;7.73;7.33;;;11.00;99.90;;;;;;10383569;28;20229;-83
2023/12/12 13:59:25;;;;;;;11.33;10.73;;;11.10;99.90;;;;;;10374295;28;20213;-83
2023/12/12 14:04:29;;;;;;;11.30;10.60;;;11.10;99.90;;;;;;10368997;28;20253;-82
2023/12/12 14:09:31;;;;;;;11.23;10.73;;;11.10;99.90;;;;;;10392362;28;20222;-82
2023/12/12 14:14:34;;;;;;;11.20;10.67;;;11.10;99.90;;;;;;10373832;28;20629;-82
2023/12/12 14:19:37;;;;;;;9.10;8.60;;;11.10;99.90;;;;;;10379244;28;20633;-82
2023/12/12 14:24:40;;;;;;;10.00;9.60;;;11.10;99.90;;;;;;10361815;28;20253;-82
2023/12/12 14:29:43;;;;;;;9.90;9.40;;;11.10;99.90;;;;;;10376695;28;20222;-81
2023/12/12 14:34:47;;;;;;;8.87;8.27;;;11.10;99.90;;;;;;10372641;28;20213;-81
2023/12/12 14:39:49;;;;;;;10.23;9.63;;;11.10;99.90;;;;;;10372774;28;20238;-82
2023/12/12 14:44:51;;;;;;;9.33;8.83;;;11.10;99.90;;;;;;10371502;28;20195;-82
2023/12/12 14:49:55;;;;;;;8.27;7.97;;;11.10;99.90;;;;;;10373959;28;20582;-81
2023/12/12 14:54:57;;;;;;;7.93;7.53;;;11.10;99.90;;;;;;10379997;28;20211;-82
2023/12/12 15:00:00;;;;;;;6.63;6.33;;;11.10;99.90;;;;;;10376378;28;20680;-81
2023/12/12 15:05:04;;;;;;;7.10;6.80;;;11.00;99.90;;;;;;10379347;28;20213;-82
2023/12/12 15:10:08;;;;;;;8.27;7.87;;;11.00;99.90;;;;;;10378507;28;20226;-81
2023/12/12 15:15:11;;;;;;;6.70;5.77;;;11.00;99.90;;;;;;10387159;28;20746;-81
2023/12/12 15:20:16;;;;;;;8.50;8.00;;;11.00;99.90;;;;;;10384001;28;20237;-81
2023/12/12 15:25:19;;;;;;;14.13;12.83;;;11.00;99.90;;;;;;10380063;28;20222;-81
2023/12/12 15:30:21;;;;;;;13.60;12.37;;;11.00;99.90;;;;;;10379725;28;20641;-82
2023/12/12 15:35:27;;;;;;;11.00;10.30;;;10.90;99.90;;;;;;10380581;28;20791;-81
2023/12/12 15:40:29;;;;;;;8.50;7.90;;;10.90;99.90;;;;;;10381047;28;20226;-82
2023/12/12 15:45:32;;;;;;;7.50;7.03;;;10.90;99.90;;;;;;10379250;28;20677;-81
2023/12/12 15:50:35;;;;;;;12.47;11.37;;;10.90;99.90;;;;;;10376354;28;20218;-82
2023/12/12 15:55:39;;;;;;;8.97;7.70;;;10.90;99.90;;;;;;10377862;28;20249;-81
2023/12/12 16:00:42;;;;;;;9.20;8.70;;;10.90;99.90;;;;;;10379696;28;20242;-82
2023/12/12 16:05:45;;;;;;;8.77;8.27;;;10.90;99.90;;;;;;10372804;28;20762;-81
2023/12/12 16:10:48;;;;;;;7.03;6.63;;;10.90;99.90;;;;;;10386405;28;20238;-82
2023/12/12 16:15:50;;;;;;;7.60;7.20;;;10.80;99.90;;;;;;10388904;28;20241;-81
2023/12/12 16:20:54;;;;;;;7.60;7.00;;;10.90;99.90;;;;;;10385768;28;20704;-81
2023/12/12 16:25:57;;;;;;;8.07;7.57;;;10.90;99.90;;;;;;10381450;28;20276;-81
2023/12/12 16:30:59;;;;;;;6.23;5.73;;;10.80;99.90;;;;;;10384270;28;20700;-81
2023/12/12 16:36:03;;;;;;;7.30;6.90;;;10.80;99.90;;;;;;10377577;28;20202;-81
2023/12/12 16:41:07;;;;;;;7.60;7.20;;;10.90;99.90;;;;;;10379370;28;20650;-81
2023/12/12 16:46:09;;;;;;;15.83;13.20;;;10.90;99.90;;;;;;10379591;28;20214;-81
2023/12/12 16:51:13;;;;;;;30.43;20.30;;;10.90;99.90;;;;;;10376136;28;20282;-81
2023/12/12 16:56:15;;;;;;;27.77;18.37;;;10.90;99.90;;;;;;10375769;28;20248;-80
2023/12/12 17:01:17;;;;;;;72.83;36.87;;;10.90;99.90;;;;;;10374975;28;20718;-81
2023/12/12 17:06:21;;;;;;;42.10;20.83;;;10.90;99.90;;;;;;10371914;28;20249;-81
2023/12/12 17:11:24;;;;;;;18.57;14.90;;;10.90;99.90;;;;;;10382886;28;20222;-81
2023/12/12 17:16:26;;;;;;;13.57;12.33;;;10.90;99.90;;;;;;10376519;28;20659;-80
2023/12/12 17:21:30;;;;;;;13.40;12.10;;;10.90;99.90;;;;;;10371545;28;20258;-80
2023/12/12 17:26:32;;;;;;;9.67;8.77;;;10.90;99.90;;;;;;10383059;28;20221;-81
2023/12/12 17:31:35;;;;;;;11.43;10.63;;;10.90;99.90;;;;;;10371554;28;20227;-80
2023/12/12 17:36:39;;;;;;;13.93;12.80;;;11.00;99.90;;;;;;10382894;28;20209;-80
2023/12/12 17:41:42;;;;;;;11.70;10.80;;;11.00;99.90;;;;;;10373646;28;20238;-80
2023/12/12 17:46:44;;;;;;;12.80;11.60;;;10.90;99.90;;;;;;10359252;28;20219;-80
2023/12/12 17:51:48;;;;;;;11.00;10.17;;;11.00;99.90;;;;;;10378412;28;20230;-80
2023/12/12 17:56:50;;;;;;;9.83;9.03;;;11.00;99.90;;;;;;10395020;28;20191;-81
2023/12/12 18:01:53;;;;;;;14.03;13.13;;;11.10;99.90;;;;;;10389801;28;20226;-81
2023/12/12 18:06:58;;;;;;;12.90;11.90;;;11.10;99.90;;;;;;10389275;28;20250;-83
2023/12/12 18:12:00;;;;;;;15.70;14.43;;;11.20;99.90;;;;;;10353527;28;20218;-83
2023/12/12 18:17:03;;;;;;;17.17;15.83;;;11.20;99.90;;;;;;10354273;28;20198;-82
2023/12/12 18:22:07;;;;;;;16.23;14.90;;;11.20;99.90;;;;;;10361112;28;20223;-83
2023/12/12 18:27:10;;;;;;;12.60;11.70;;;11.20;99.90;;;;;;10355600;28;20246;-80
2023/12/12 18:32:12;;;;;;;12.70;11.90;;;11.20;99.90;;;;;;10351908;28;20651;-84
2023/12/12 18:37:16;;;;;;;10.60;10.10;;;11.20;99.90;;;;;;10359953;28;20198;-79
2023/12/12 18:42:18;;;;;;;10.43;9.63;;;11.20;99.90;;;;;;10371558;28;20322;-82
2023/12/12 18:47:21;;;;;;;7.90;7.40;;;11.20;99.90;;;;;;10386332;28;20291;-81
2023/12/12 18:52:24;;;;;;;10.87;10.27;;;11.20;99.90;;;;;;10399865;28;20628;-81
2023/12/12 18:57:27;;;;;;;10.17;9.57;;;11.20;99.90;;;;;;10380029;28;20199;-79
2023/12/12 19:02:30;;;;;;;7.53;7.13;;;11.20;99.90;;;;;;10363274;28;20223;-79
2023/12/12 19:07:34;;;;;;;10.67;10.20;;;11.20;99.90;;;;;;10356761;28;20209;-79
2023/12/12 19:12:39;;;;;;;10.40;9.93;;;11.20;99.90;;;;;;10344986;28;20218;-81
2023/12/12 19:17:42;;;;;;;7.90;7.30;;;11.20;99.90;;;;;;10384443;28;20197;-80
2023/12/12 19:22:47;;;;;;;9.10;8.70;;;11.10;99.90;;;;;;10396734;28;20265;-81
2023/12/12 19:27:49;;;;;;;7.30;6.90;;;11.10;99.90;;;;;;10395485;28;20214;-80
2023/12/12 19:32:52;;;;;;;7.10;6.70;;;11.10;99.90;;;;;;10382404;28;20233;-80
2023/12/12 19:37:55;;;;;;;10.17;9.67;;;11.10;99.90;;;;;;10396036;28;20198;-80
2023/12/12 19:42:58;;;;;;;9.00;8.40;;;11.10;99.90;;;;;;10382043;28;20222;-81
2023/12/12 19:48:00;;;;;;;10.67;10.00;;;11.10;99.90;;;;;;10401144;28;20218;-80
2023/12/12 19:53:06;;;;;;;7.20;6.90;;;11.10;99.90;;;;;;10387501;28;20218;-80
2023/12/12 19:58:08;;;;;;;10.70;10.20;;;11.00;99.90;;;;;;10431474;22;20230;-77
2023/12/12 20:03:11;;;;;;;8.50;7.60;;;11.00;99.90;;;;;;10452959;28;20197;-75
2023/12/12 20:08:14;;;;;;;10.53;9.80;;;10.90;99.90;;;;;;10453612;28;20225;-76
2023/12/12 20:13:17;;;;;;;13.60;12.80;;;10.90;99.90;;;;;;10446425;28;20198;-76
2023/12/12 20:18:21;;;;;;;11.07;10.23;;;10.90;99.90;;;;;;10431142;28;20210;-77
2023/12/12 20:23:24;;;;;;;10.03;9.13;;;10.90;99.90;;;;;;10455032;28;20193;-77
2023/12/12 20:28:27;;;;;;;13.97;12.90;;;10.90;99.90;;;;;;10454124;28;20214;-77
2023/12/12 20:33:29;;;;;;;12.03;11.40;;;10.90;99.90;;;;;;10420764;28;20193;-77
2023/12/12 20:38:33;;;;;;;10.30;9.50;;;10.90;99.90;;;;;;10426427;28;20220;-76
2023/12/12 20:43:36;;;;;;;14.07;13.27;;;10.90;99.90;;;;;;10431944;28;20209;-77
2023/12/12 20:48:38;;;;;;;12.20;11.50;;;10.90;99.90;;;;;;10424927;28;20234;-77
2023/12/12 20:53:43;;;;;;;13.30;12.30;;;10.90;99.90;;;;;;10432024;28;20216;-77
2023/12/12 20:58:46;;;;;;;12.47;11.67;;;10.90;99.90;;;;;;10453817;28;20217;-77
2023/12/12 21:03:50;;;;;;;13.00;12.20;;;10.90;99.90;;;;;;10436529;28;20208;-77
2023/12/12 21:08:54;;;;;;;12.10;11.53;;;10.80;99.90;;;;;;10426528;28;20279;-77
2023/12/12 21:13:58;;;;;;;12.17;11.47;;;10.90;99.90;;;;;;10453352;28;20189;-76
2023/12/12 21:19:00;;;;;;;12.27;11.63;;;10.90;99.90;;;;;;10442537;28;20645;-77
2023/12/12 21:24:05;;;;;;;12.60;12.00;;;10.90;99.90;;;;;;10432181;28;20686;-77
2023/12/12 21:29:08;;;;;;;12.37;11.77;;;10.90;99.90;;;;;;10432270;28;20221;-77
2023/12/12 21:34:12;;;;;;;12.60;12.00;;;10.90;99.90;;;;;;10453084;28;20267;-77
2023/12/12 21:39:16;;;;;;;11.60;11.10;;;10.90;99.90;;;;;;10450999;28;20267;-77
2023/12/12 21:44:19;;;;;;;10.70;10.20;;;10.90;99.90;;;;;;10455974;28;20208;-76
2023/12/12 21:49:22;;;;;;;11.00;10.50;;;10.90;99.90;;;;;;10467200;28;20217;-76
2023/12/12 21:54:26;;;;;;;13.50;12.63;;;10.90;99.90;;;;;;10452413;28;20197;-76
2023/12/12 21:59:28;;;;;;;13.83;13.03;;;10.90;99.90;;;;;;10466227;28;20765;-77
2023/12/12 22:04:30;;;;;;;12.63;11.93;;;10.90;99.90;;;;;;10450417;28;20193;-75
2023/12/12 22:09:34;;;;;;;11.10;10.60;;;11.00;99.90;;;;;;10448727;28;20736;-76
2023/12/12 22:14:36;;;;;;;9.30;8.90;;;10.90;99.90;;;;;;10449542;28;20220;-76
2023/12/12 22:19:39;;;;;;;10.03;9.63;;;10.70;99.90;;;;;;10440401;28;20210;-75
2023/12/12 22:24:42;;;;;;;9.93;9.40;;;10.60;99.90;;;;;;10430561;28;20209;-76
2023/12/12 22:29:45;;;;;;;9.40;8.90;;;10.50;99.90;;;;;;10447141;28;20221;-76
2023/12/12 22:34:47;;;;;;;9.73;9.23;;;10.40;99.90;;;;;;10448695;28;20204;-75
2023/12/12 22:39:51;;;;;;;7.03;6.83;;;10.30;99.90;;;;;;10447624;28;20217;-76
2023/12/12 22:44:53;;;;;;;10.27;9.77;;;10.30;99.90;;;;;;10448613;28;20614;-76
2023/12/12 22:49:55;;;;;;;10.77;9.80;;;10.20;99.90;;;;;;10448538;28;20295;-76
2023/12/12 22:55:00;;;;;;;8.63;8.10;;;10.10;99.90;;;;;;10423834;28;20201;-76
2023/12/12 23:00:24;;;;;;;9.67;9.17;;;10.00;99.90;;;;;;10426568;28;20650;-76
2023/12/12 23:05:26;;;;;;;9.60;9.30;;;9.90;99.90;;;;;;10430813;28;20197;-76
2023/12/12 23:10:30;;;;;;;9.37;9.07;;;9.90;99.90;;;;;;10426241;28;20637;-76
2023/12/12 23:15:33;;;;;;;9.97;9.47;;;9.90;99.90;;;;;;10429443;28;20189;-76
2023/12/12 23:20:35;;;;;;;8.93;8.53;;;9.90;99.90;;;;;;10430315;28;20212;-75
2023/12/12 23:25:39;;;;;;;9.13;8.70;;;9.80;99.90;;;;;;10433047;28;20201;-76
2023/12/12 23:30:44;;;;;;;9.43;9.00;;;9.80;99.90;;;;;;10433369;28;20230;-76
2023/12/12 23:35:46;;;;;;;8.83;8.43;;;9.80;99.90;;;;;;10435751;28;20204;-76
2023/12/12 23:40:50;;;;;;;9.10;8.70;;;9.80;99.90;;;;;;10422111;28;20213;-76
2023/12/12 23:45:52;;;;;;;8.77;8.33;;;9.80;99.90;;;;;;10454749;28;21003;-76
2023/12/12 23:50:54;;;;;;;8.30;8.00;;;9.70;99.90;;;;;;10455207;28;20236;-75
2023/12/12 23:55:58;;;;;;;8.43;8.03;;;9.70;99.90;;;;;;10421971;28;20200;-76
